Time;durP1;ratioP1;P1;durP2;ratioP2;P2;SDS_P1;SDS_P2;PMS_P1;PMS_P2;Temp;Humidity;BMP_temperature;BMP_pressure;BME280_temperature;BME280_humidity;BME280_pressure;Samples;Min_cycle;Max_cycle;Signal;HPM_P1;HPM_P2
2020/12/10 00:01:04;;;;;;;45.22;27.38;;;;;;;;;;5069594;28;21264;-58
2020/12/10 00:03:29;;;;;;;44.90;27.03;;;;;;;;;;5067494;28;20199;-59
2020/12/10 00:05:55;;;;;;;42.03;27.00;;;;;;;;;;5064438;28;20207;-58
2020/12/10 00:08:20;;;;;;;44.33;26.53;;;;;;;;;;5069666;28;20530;-59
2020/12/10 00:10:45;;;;;;;44.00;27.45;;;;;;;;;;5069527;28;20304;-58
2020/12/10 00:13:10;;;;;;;39.88;25.90;;;;;;;;;;5067970;28;20264;-59
2020/12/10 00:15:35;;;;;;;37.83;25.38;;;;;;;;;;5066708;28;20194;-59
2020/12/10 00:18:00;;;;;;;43.83;27.40;;;;;;;;;;5066326;28;20179;-59
2020/12/10 00:20:25;;;;;;;39.93;25.23;;;;;;;;;;5069251;28;20641;-59
2020/12/10 00:22:51;;;;;;;39.95;26.33;;;;;;;;;;5069495;28;20262;-59
2020/12/10 00:25:16;;;;;;;42.07;26.10;;;;;;;;;;5067189;28;20213;-59
2020/12/10 00:27:41;;;;;;;43.03;27.10;;;;;;;;;;5065936;28;20167;-59
2020/12/10 00:30:07;;;;;;;38.20;25.55;;;;;;;;;;5069130;28;20586;-59
2020/12/10 00:32:32;;;;;;;37.93;25.37;;;;;;;;;;5069568;28;20630;-59
2020/12/10 00:34:57;;;;;;;38.17;25.42;;;;;;;;;;5069057;28;21081;-60
2020/12/10 00:37:26;;;;;;;38.33;25.27;;;;;;;;;;5066961;28;20674;-58
2020/12/10 00:39:51;;;;;;;43.27;26.27;;;;;;;;;;5068976;28;20171;-59
2020/12/10 00:42:16;;;;;;;43.90;26.03;;;;;;;;;;5069527;28;20592;-58
2020/12/10 00:44:41;;;;;;;41.87;25.40;;;;;;;;;;5069155;28;20195;-58
2020/12/10 00:47:06;;;;;;;37.92;25.20;;;;;;;;;;5063549;28;20171;-58
2020/12/10 00:49:32;;;;;;;39.13;24.30;;;;;;;;;;5069414;28;20167;-59
2020/12/10 00:51:57;;;;;;;39.03;24.05;;;;;;;;;;5068850;28;20188;-59
2020/12/10 00:54:22;;;;;;;41.57;25.63;;;;;;;;;;5069060;28;20660;-59
2020/12/10 00:56:48;;;;;;;34.77;24.50;;;;;;;;;;5066245;28;20225;-58
2020/12/10 00:59:13;;;;;;;38.43;24.73;;;;;;;;;;5069206;28;20184;-58
2020/12/10 01:01:39;;;;;;;43.57;26.20;;;;;;;;;;5068746;28;20953;-59
2020/12/10 01:04:05;;;;;;;40.10;25.33;;;;;;;;;;5069077;28;20529;-58
2020/12/10 01:06:30;;;;;;;42.47;26.27;;;;;;;;;;5069130;28;20955;-59
2020/12/10 01:08:55;;;;;;;43.60;25.48;;;;;;;;;;5061658;28;20721;-59
2020/12/10 01:11:25;;;;;;;44.67;25.83;;;;;;;;;;5061058;28;20215;-58
2020/12/10 01:13:50;;;;;;;37.73;23.90;;;;;;;;;;5069082;28;20590;-58
2020/12/10 01:16:15;;;;;;;37.00;24.10;;;;;;;;;;5068331;28;20679;-59
2020/12/10 01:18:40;;;;;;;40.33;25.50;;;;;;;;;;5064905;28;20579;-59
2020/12/10 01:21:05;;;;;;;38.15;23.95;;;;;;;;;;5068779;28;20167;-59
2020/12/10 01:23:31;;;;;;;39.78;25.00;;;;;;;;;;5068747;28;20203;-58
2020/12/10 01:25:56;;;;;;;38.80;23.47;;;;;;;;;;5068998;28;20774;-59
2020/12/10 01:28:21;;;;;;;36.88;23.98;;;;;;;;;;5066074;28;20643;-58
2020/12/10 01:30:46;;;;;;;39.90;24.15;;;;;;;;;;5068676;28;20176;-59
2020/12/10 01:33:11;;;;;;;38.53;24.88;;;;;;;;;;5068743;28;20168;-59
2020/12/10 01:35:36;;;;;;;38.03;24.67;;;;;;;;;;5068296;28;20218;-59
2020/12/10 01:38:01;;;;;;;37.97;24.50;;;;;;;;;;5063708;28;20186;-59
2020/12/10 01:40:27;;;;;;;37.57;25.47;;;;;;;;;;5063636;28;20225;-59
2020/12/10 01:42:52;;;;;;;40.70;25.83;;;;;;;;;;5068609;28;20536;-59
2020/12/10 01:45:17;;;;;;;38.90;26.08;;;;;;;;;;5068975;28;20729;-59
2020/12/10 01:47:42;;;;;;;42.40;25.48;;;;;;;;;;5064827;28;20183;-58
2020/12/10 01:50:08;;;;;;;37.55;25.35;;;;;;;;;;5067600;28;20159;-60
2020/12/10 01:52:33;;;;;;;38.17;24.90;;;;;;;;;;5068707;28;20166;-59
2020/12/10 01:54:58;;;;;;;38.30;24.23;;;;;;;;;;5068569;28;20174;-59
2020/12/10 01:57:23;;;;;;;38.28;24.33;;;;;;;;;;5069499;28;20198;-59
2020/12/10 01:59:49;;;;;;;40.40;24.98;;;;;;;;;;5070280;28;20198;-59
2020/12/10 02:02:14;;;;;;;39.37;25.20;;;;;;;;;;5069448;28;20177;-60
2020/12/10 02:04:39;;;;;;;42.70;25.23;;;;;;;;;;5072104;28;20198;-59
2020/12/10 02:07:04;;;;;;;38.20;25.75;;;;;;;;;;5071768;28;20221;-60
2020/12/10 02:09:30;;;;;;;38.53;25.27;;;;;;;;;;5069968;28;20307;-59
2020/12/10 02:11:55;;;;;;;42.97;26.47;;;;;;;;;;5068227;28;20175;-59
2020/12/10 02:14:21;;;;;;;41.87;25.50;;;;;;;;;;5072130;28;20207;-60
2020/12/10 02:16:52;;;;;;;36.93;24.50;;;;;;;;;;5071591;28;20230;-59
2020/12/10 02:19:17;;;;;;;39.23;25.43;;;;;;;;;;5066747;28;20658;-59
2020/12/10 02:21:42;;;;;;;42.35;24.58;;;;;;;;;;5070567;28;20633;-59
2020/12/10 02:24:07;;;;;;;42.35;26.77;;;;;;;;;;5071596;28;20197;-59
2020/12/10 02:26:32;;;;;;;42.63;26.30;;;;;;;;;;5071829;28;20206;-59
2020/12/10 02:28:59;;;;;;;40.72;25.27;;;;;;;;;;5069797;28;20171;-58
2020/12/10 02:31:25;;;;;;;41.33;25.13;;;;;;;;;;5070617;28;20218;-59
2020/12/10 02:33:50;;;;;;;36.77;24.70;;;;;;;;;;5070959;28;20604;-59
2020/12/10 02:36:15;;;;;;;36.10;24.17;;;;;;;;;;5071087;28;20194;-58
2020/12/10 02:38:41;;;;;;;39.00;25.23;;;;;;;;;;5067421;28;20171;-58
2020/12/10 02:41:06;;;;;;;41.67;24.55;;;;;;;;;;5070950;28;20209;-59
2020/12/10 02:43:31;;;;;;;38.50;24.30;;;;;;;;;;5069032;28;20212;-58
2020/12/10 02:45:56;;;;;;;40.95;25.10;;;;;;;;;;5070698;28;20292;-58
2020/12/10 02:48:21;;;;;;;45.35;27.25;;;;;;;;;;5067292;28;20182;-58
2020/12/10 02:50:46;;;;;;;35.10;23.52;;;;;;;;;;5068183;28;20225;-60
2020/12/10 02:53:11;;;;;;;38.25;24.80;;;;;;;;;;5071192;28;20576;-59
2020/12/10 02:55:37;;;;;;;43.50;26.60;;;;;;;;;;5070922;28;20179;-59
2020/12/10 02:58:02;;;;;;;42.37;25.57;;;;;;;;;;5069027;28;20731;-59
2020/12/10 03:00:27;;;;;;;37.73;24.60;;;;;;;;;;5068358;28;20172;-59
2020/12/10 03:02:52;;;;;;;43.80;24.20;;;;;;;;;;5071120;28;20304;-59
2020/12/10 03:05:17;;;;;;;41.40;26.42;;;;;;;;;;5070549;28;20261;-57
2020/12/10 03:07:43;;;;;;;45.07;26.17;;;;;;;;;;5069087;28;20173;-62
2020/12/10 03:10:08;;;;;;;44.20;24.92;;;;;;;;;;5070229;28;20195;-57
2020/12/10 03:12:33;;;;;;;43.58;24.92;;;;;;;;;;5071927;28;20541;-58
2020/12/10 03:14:58;;;;;;;45.67;27.70;;;;;;;;;;5071096;28;20181;-57
2020/12/10 03:17:23;;;;;;;42.60;26.50;;;;;;;;;;5070424;28;20226;-57
2020/12/10 03:19:48;;;;;;;42.95;25.88;;;;;;;;;;5068893;28;20241;-57
2020/12/10 03:22:14;;;;;;;37.55;24.63;;;;;;;;;;5069182;28;20207;-57
2020/12/10 03:24:39;;;;;;;42.73;25.30;;;;;;;;;;5070414;28;20207;-57
2020/12/10 03:27:05;;;;;;;43.50;25.90;;;;;;;;;;5070286;28;20190;-57
2020/12/10 03:29:30;;;;;;;36.93;24.60;;;;;;;;;;5068731;28;20163;-57
2020/12/10 03:31:55;;;;;;;41.97;25.30;;;;;;;;;;5072657;28;20175;-59
2020/12/10 03:34:21;;;;;;;43.00;27.50;;;;;;;;;;5069687;28;20175;-57
2020/12/10 03:36:48;;;;;;;42.20;24.67;;;;;;;;;;5069253;28;20645;-58
2020/12/10 03:39:13;;;;;;;38.30;25.30;;;;;;;;;;5067911;28;20636;-57
2020/12/10 03:41:38;;;;;;;41.43;25.93;;;;;;;;;;5068495;28;20695;-57
2020/12/10 03:44:03;;;;;;;39.00;25.00;;;;;;;;;;5070170;28;20179;-59
2020/12/10 03:46:29;;;;;;;45.77;26.53;;;;;;;;;;5070350;28;20643;-59
2020/12/10 03:48:54;;;;;;;37.83;22.92;;;;;;;;;;5067315;28;20174;-57
2020/12/10 03:51:19;;;;;;;41.97;26.05;;;;;;;;;;5070498;28;20174;-59
2020/12/10 03:53:44;;;;;;;42.35;26.80;;;;;;;;;;5064177;28;20286;-59
2020/12/10 03:56:09;;;;;;;43.65;26.05;;;;;;;;;;5069691;28;20187;-59
2020/12/10 03:58:34;;;;;;;40.50;24.73;;;;;;;;;;5067879;28;20221;-59
2020/12/10 04:00:59;;;;;;;42.85;25.63;;;;;;;;;;5069859;28;20178;-59
2020/12/10 04:03:25;;;;;;;42.67;25.23;;;;;;;;;;5067908;28;20179;-59
2020/12/10 04:05:50;;;;;;;42.47;27.10;;;;;;;;;;5069359;28;20691;-57
2020/12/10 04:08:15;;;;;;;39.30;24.77;;;;;;;;;;5067926;28;20172;-57
2020/12/10 04:10:40;;;;;;;39.13;25.40;;;;;;;;;;5067167;28;20174;-58
2020/12/10 04:13:05;;;;;;;41.60;24.95;;;;;;;;;;5068642;28;20722;-58
2020/12/10 04:15:30;;;;;;;43.00;27.03;;;;;;;;;;5064832;28;20179;-57
2020/12/10 04:17:55;;;;;;;47.28;27.10;;;;;;;;;;5069674;28;20210;-57
2020/12/10 04:20:21;;;;;;;42.47;26.40;;;;;;;;;;5067334;28;20421;-59
2020/12/10 04:22:46;;;;;;;42.67;27.23;;;;;;;;;;5069464;28;20167;-57
2020/12/10 04:25:11;;;;;;;45.85;27.15;;;;;;;;;;5064407;28;20252;-57
2020/12/10 04:27:36;;;;;;;47.55;27.67;;;;;;;;;;5062156;28;20185;-57
2020/12/10 04:30:01;;;;;;;48.15;28.38;;;;;;;;;;5065644;28;20189;-57
2020/12/10 04:32:26;;;;;;;45.10;27.77;;;;;;;;;;5070038;28;20224;-57
2020/12/10 04:34:51;;;;;;;45.75;29.30;;;;;;;;;;5067765;28;20258;-59
2020/12/10 04:37:17;;;;;;;48.80;26.38;;;;;;;;;;5069292;28;20276;-57
2020/12/10 04:39:42;;;;;;;48.53;28.50;;;;;;;;;;5072452;28;20704;-57
2020/12/10 04:42:09;;;;;;;50.55;28.00;;;;;;;;;;5061748;28;20174;-57
2020/12/10 04:44:34;;;;;;;51.13;28.53;;;;;;;;;;5064771;28;20700;-57
2020/12/10 04:47:00;;;;;;;49.20;27.80;;;;;;;;;;5059435;28;20612;-57
2020/12/10 04:49:26;;;;;;;46.90;27.87;;;;;;;;;;5054530;28;20178;-57
2020/12/10 04:51:51;;;;;;;42.13;27.17;;;;;;;;;;5063104;28;20705;-57
2020/12/10 04:54:16;;;;;;;43.10;26.80;;;;;;;;;;5064179;28;20549;-57
2020/12/10 04:56:41;;;;;;;44.75;25.63;;;;;;;;;;5067940;28;20544;-57
2020/12/10 04:59:06;;;;;;;45.40;27.57;;;;;;;;;;5064306;28;20175;-56
2020/12/10 05:01:32;;;;;;;43.93;26.27;;;;;;;;;;5065510;28;20205;-57
2020/12/10 05:03:58;;;;;;;47.30;27.97;;;;;;;;;;5057335;28;20651;-57
2020/12/10 05:06:23;;;;;;;51.83;30.30;;;;;;;;;;5063675;28;20258;-57
2020/12/10 05:08:48;;;;;;;45.20;25.90;;;;;;;;;;5065732;28;20691;-57
2020/12/10 05:11:14;;;;;;;45.80;28.13;;;;;;;;;;5066229;28;20183;-57
2020/12/10 05:13:51;;;;;;;47.55;27.75;;;;;;;;;;5066141;28;20179;-57
2020/12/10 05:16:21;;;;;;;45.50;27.80;;;;;;;;;;5065422;28;20223;-57
2020/12/10 05:18:46;;;;;;;51.07;27.80;;;;;;;;;;5062317;28;20596;-57
2020/12/10 05:21:13;;;;;;;48.80;28.60;;;;;;;;;;5066461;28;20592;-56
2020/12/10 05:23:39;;;;;;;48.20;28.60;;;;;;;;;;5067116;28;20189;-57
2020/12/10 05:26:05;;;;;;;54.50;28.43;;;;;;;;;;5065882;28;20678;-58
2020/12/10 05:28:41;;;;;;;51.60;28.83;;;;;;;;;;5063727;28;20616;-58
2020/12/10 05:31:07;;;;;;;45.43;28.47;;;;;;;;;;5068119;28;20624;-58
2020/12/10 05:33:57;;;;;;;47.60;28.00;;;;;;;;;;5072105;28;20944;-59
2020/12/10 05:36:21;;;;;;;45.93;27.77;;;;;;;;;;5055406;28;20609;-58
2020/12/10 05:38:53;;;;;;;49.80;29.23;;;;;;;;;;5066427;28;21278;-59
2020/12/10 05:41:19;;;;;;;46.23;27.10;;;;;;;;;;5065017;28;20174;-59
2020/12/10 05:43:44;;;;;;;47.97;28.03;;;;;;;;;;5068964;28;20596;-59
2020/12/10 05:46:17;;;;;;;46.40;28.53;;;;;;;;;;5068068;28;20644;-59
2020/12/10 05:48:43;;;;;;;48.17;28.17;;;;;;;;;;5067009;28;20257;-59
2020/12/10 05:51:13;;;;;;;55.03;29.47;;;;;;;;;;5064610;28;21262;-59
2020/12/10 05:53:40;;;;;;;52.47;30.93;;;;;;;;;;5069167;28;20592;-58
2020/12/10 05:56:06;;;;;;;45.47;27.20;;;;;;;;;;5062576;28;20592;-58
2020/12/10 05:58:31;;;;;;;46.87;27.40;;;;;;;;;;5065984;28;21195;-59
2020/12/10 06:00:57;;;;;;;46.97;28.02;;;;;;;;;;5066490;28;20179;-59
2020/12/10 06:03:22;;;;;;;43.90;28.00;;;;;;;;;;5068620;28;20664;-59
2020/12/10 06:05:48;;;;;;;51.65;29.02;;;;;;;;;;5067176;28;21099;-59
2020/12/10 06:08:13;;;;;;;45.27;27.97;;;;;;;;;;5064108;28;20184;-59
2020/12/10 06:10:39;;;;;;;48.63;28.15;;;;;;;;;;5063362;28;20634;-58
2020/12/10 06:13:04;;;;;;;50.97;30.20;;;;;;;;;;5065460;28;20179;-58
2020/12/10 06:15:32;;;;;;;50.37;28.57;;;;;;;;;;5069509;28;21147;-59
2020/12/10 06:18:10;;;;;;;57.67;29.13;;;;;;;;;;5062816;28;20192;-58
2020/12/10 06:20:49;;;;;;;50.27;28.30;;;;;;;;;;5068051;28;20681;-58
2020/12/10 06:23:23;;;;;;;45.90;28.07;;;;;;;;;;5070533;28;20611;-59
2020/12/10 06:25:48;;;;;;;48.07;28.33;;;;;;;;;;5068277;28;20949;-59
2020/12/10 06:28:17;;;;;;;46.40;28.83;;;;;;;;;;5071124;28;20589;-58
2020/12/10 06:30:42;;;;;;;45.37;27.40;;;;;;;;;;5069602;28;20197;-58
2020/12/10 06:33:08;;;;;;;47.20;27.27;;;;;;;;;;5071770;28;20595;-58
2020/12/10 06:35:36;;;;;;;43.57;27.50;;;;;;;;;;5071683;28;20790;-58
2020/12/10 06:38:02;;;;;;;45.83;28.00;;;;;;;;;;5070472;28;20274;-58
2020/12/10 06:40:29;;;;;;;44.33;26.77;;;;;;;;;;5064690;28;20611;-58
2020/12/10 06:42:54;;;;;;;50.30;29.13;;;;;;;;;;5071215;28;20937;-58
2020/12/10 06:45:26;;;;;;;47.45;26.30;;;;;;;;;;5071625;28;21055;-58
2020/12/10 06:47:51;;;;;;;45.20;26.80;;;;;;;;;;5071255;28;20168;-58
2020/12/10 06:50:20;;;;;;;44.10;26.23;;;;;;;;;;5064026;28;20589;-58
2020/12/10 06:53:05;;;;;;;42.90;27.20;;;;;;;;;;5071363;28;20170;-58
2020/12/10 06:55:30;;;;;;;42.80;25.73;;;;;;;;;;5070643;28;20672;-58
2020/12/10 06:58:03;;;;;;;43.72;25.88;;;;;;;;;;5070607;28;20622;-59
2020/12/10 07:00:41;;;;;;;47.13;26.90;;;;;;;;;;5066112;28;21665;-59
2020/12/10 07:03:06;;;;;;;45.57;27.10;;;;;;;;;;5067829;28;20602;-59
2020/12/10 07:05:31;;;;;;;48.63;26.63;;;;;;;;;;5067206;28;20654;-59
2020/12/10 07:08:07;;;;;;;43.17;24.00;;;;;;;;;;5067096;28;20893;-58
2020/12/10 07:10:38;;;;;;;46.13;27.10;;;;;;;;;;5065926;28;20186;-58
2020/12/10 07:13:04;;;;;;;44.80;26.70;;;;;;;;;;5062814;28;20589;-58
2020/12/10 07:15:29;;;;;;;44.40;28.60;;;;;;;;;;5067253;28;20601;-58
2020/12/10 07:17:54;;;;;;;40.80;25.83;;;;;;;;;;5060281;28;20279;-59
2020/12/10 07:20:20;;;;;;;44.87;26.10;;;;;;;;;;5065793;28;20184;-59
2020/12/10 07:22:45;;;;;;;42.20;25.37;;;;;;;;;;5067542;28;20237;-59
2020/12/10 07:25:11;;;;;;;43.43;25.70;;;;;;;;;;5067316;28;20214;-58
2020/12/10 07:27:36;;;;;;;43.23;26.00;;;;;;;;;;5067715;28;20190;-59
2020/12/10 07:30:02;;;;;;;40.73;24.93;;;;;;;;;;5066164;28;20437;-57
2020/12/10 07:32:27;;;;;;;48.40;28.27;;;;;;;;;;5067374;28;20206;-59
2020/12/10 07:34:52;;;;;;;42.47;25.40;;;;;;;;;;5067354;28;20640;-58
2020/12/10 07:37:23;;;;;;;47.30;27.90;;;;;;;;;;5067150;28;20629;-59
2020/12/10 07:39:48;;;;;;;44.57;25.90;;;;;;;;;;5064100;28;20183;-59
2020/12/10 07:42:20;;;;;;;42.17;26.05;;;;;;;;;;5069210;28;20699;-58
2020/12/10 07:44:45;;;;;;;44.27;25.07;;;;;;;;;;5067219;28;20326;-58
2020/12/10 07:47:12;;;;;;;45.90;28.23;;;;;;;;;;5066090;28;20695;-54
2020/12/10 07:49:37;;;;;;;42.03;25.37;;;;;;;;;;5066192;28;20529;-54
2020/12/10 07:52:03;;;;;;;47.47;28.17;;;;;;;;;;5070120;28;20586;-54
2020/12/10 07:54:40;;;;;;;42.13;26.07;;;;;;;;;;5068997;28;20239;-54
2020/12/10 07:57:07;;;;;;;43.33;27.10;;;;;;;;;;5069300;28;20624;-54
2020/12/10 07:59:33;;;;;;;44.83;26.57;;;;;;;;;;5065960;28;20643;-59
2020/12/10 08:01:58;;;;;;;41.37;25.97;;;;;;;;;;5066214;28;20886;-59
2020/12/10 08:04:23;;;;;;;47.10;28.33;;;;;;;;;;5069275;28;20691;-58
2020/12/10 08:06:49;;;;;;;44.43;26.80;;;;;;;;;;5067902;28;20227;-58
2020/12/10 08:09:14;;;;;;;51.90;29.07;;;;;;;;;;5069916;28;20171;-58
2020/12/10 08:11:55;;;;;;;46.60;27.53;;;;;;;;;;5059388;28;20171;-58
2020/12/10 08:14:25;;;;;;;45.20;26.73;;;;;;;;;;5069954;28;20205;-59
2020/12/10 08:16:50;;;;;;;40.00;26.90;;;;;;;;;;5062362;28;20645;-58
2020/12/10 08:19:19;;;;;;;43.20;27.30;;;;;;;;;;5069509;28;20598;-58
2020/12/10 08:21:46;;;;;;;44.90;26.67;;;;;;;;;;5067095;28;20180;-58
2020/12/10 08:24:13;;;;;;;47.63;27.97;;;;;;;;;;5069650;28;20615;-58
2020/12/10 08:26:38;;;;;;;47.10;28.20;;;;;;;;;;5069432;28;20692;-59
2020/12/10 08:29:03;;;;;;;47.37;26.40;;;;;;;;;;5069790;28;20956;-58
2020/12/10 08:31:29;;;;;;;52.57;29.03;;;;;;;;;;5063833;28;20180;-58
2020/12/10 08:33:55;;;;;;;46.50;27.27;;;;;;;;;;5061723;28;20315;-58
2020/12/10 08:36:28;;;;;;;44.03;27.17;;;;;;;;;;5069439;28;20236;-59
2020/12/10 08:38:54;;;;;;;45.87;28.10;;;;;;;;;;5069165;28;21142;-58
2020/12/10 08:41:25;;;;;;;47.97;27.37;;;;;;;;;;5063600;28;20609;-58
2020/12/10 08:43:53;;;;;;;46.30;27.27;;;;;;;;;;5068456;28;20601;-58
2020/12/10 08:46:18;;;;;;;47.37;29.00;;;;;;;;;;5069430;28;20652;-58
2020/12/10 08:48:43;;;;;;;46.28;29.25;;;;;;;;;;5068785;28;20601;-59
2020/12/10 08:51:09;;;;;;;47.05;28.20;;;;;;;;;;5067414;28;20201;-58
2020/12/10 08:53:34;;;;;;;46.22;29.33;;;;;;;;;;5068397;28;20181;-58
2020/12/10 08:56:00;;;;;;;47.70;28.07;;;;;;;;;;5069388;28;20197;-58
2020/12/10 08:58:27;;;;;;;50.63;28.70;;;;;;;;;;5069094;28;20747;-58
2020/12/10 09:00:53;;;;;;;44.67;27.60;;;;;;;;;;5067357;28;20224;-58
2020/12/10 09:03:18;;;;;;;44.37;28.30;;;;;;;;;;5068469;28;20614;-58
2020/12/10 09:05:44;;;;;;;50.20;28.93;;;;;;;;;;5069336;28;20644;-59
2020/12/10 09:08:09;;;;;;;50.60;28.37;;;;;;;;;;5073489;28;20185;-59
2020/12/10 09:10:35;;;;;;;45.53;28.50;;;;;;;;;;5070702;28;20780;-58
2020/12/10 09:13:00;;;;;;;49.40;27.43;;;;;;;;;;5073163;28;20298;-58
2020/12/10 09:15:25;;;;;;;47.47;28.50;;;;;;;;;;5073107;28;20177;-58
2020/12/10 09:17:50;;;;;;;43.80;27.70;;;;;;;;;;5073074;28;20194;-59
2020/12/10 09:20:16;;;;;;;49.38;27.77;;;;;;;;;;5071389;28;20170;-58
2020/12/10 09:22:41;;;;;;;46.37;28.27;;;;;;;;;;5071375;28;20547;-58
2020/12/10 09:25:06;;;;;;;48.17;29.23;;;;;;;;;;5072874;28;20191;-59
2020/12/10 09:27:32;;;;;;;52.53;30.30;;;;;;;;;;5073223;28;20178;-58
2020/12/10 09:29:57;;;;;;;45.93;26.93;;;;;;;;;;5072569;28;20535;-58
2020/12/10 09:32:23;;;;;;;44.10;27.17;;;;;;;;;;5065674;28;20928;-58
2020/12/10 09:34:48;;;;;;;47.47;27.20;;;;;;;;;;5072574;28;20258;-58
2020/12/10 09:37:13;;;;;;;40.97;26.50;;;;;;;;;;5072794;28;20175;-58
2020/12/10 09:39:38;;;;;;;50.93;29.03;;;;;;;;;;5072776;28;20572;-59
2020/12/10 09:42:04;;;;;;;45.17;28.87;;;;;;;;;;5069945;28;20315;-58
2020/12/10 09:44:29;;;;;;;44.47;27.87;;;;;;;;;;5072744;28;20703;-59
2020/12/10 09:46:55;;;;;;;52.40;28.37;;;;;;;;;;5072333;28;20952;-58
2020/12/10 09:49:20;;;;;;;38.73;27.10;;;;;;;;;;5072771;28;20643;-59
2020/12/10 09:51:52;;;;;;;42.90;26.00;;;;;;;;;;5070669;28;20163;-59
2020/12/10 09:54:35;;;;;;;44.10;28.00;;;;;;;;;;5067936;28;20592;-57
2020/12/10 09:57:08;;;;;;;44.83;28.97;;;;;;;;;;5072307;28;20632;-56
2020/12/10 09:59:36;;;;;;;46.27;26.40;;;;;;;;;;5072837;28;20602;-57
2020/12/10 10:02:02;;;;;;;46.80;27.60;;;;;;;;;;5070067;28;20654;-57
2020/12/10 10:04:29;;;;;;;45.53;28.57;;;;;;;;;;5071720;28;20630;-58
2020/12/10 10:06:54;;;;;;;45.60;29.40;;;;;;;;;;5072346;28;20593;-58
2020/12/10 10:09:20;;;;;;;46.05;29.23;;;;;;;;;;5072216;28;20589;-58
2020/12/10 10:11:45;;;;;;;49.73;29.63;;;;;;;;;;5068493;28;20217;-57
2020/12/10 10:14:11;;;;;;;49.13;28.30;;;;;;;;;;5067173;28;20605;-58
2020/12/10 10:16:36;;;;;;;44.83;28.53;;;;;;;;;;5069629;28;20640;-58
2020/12/10 10:19:01;;;;;;;45.60;27.47;;;;;;;;;;5071525;28;20179;-58
2020/12/10 10:21:27;;;;;;;48.60;29.93;;;;;;;;;;5070661;28;20170;-59
2020/12/10 10:23:53;;;;;;;46.00;28.27;;;;;;;;;;5070956;28;20582;-57
2020/12/10 10:26:18;;;;;;;48.70;28.00;;;;;;;;;;5069715;28;20645;-58
2020/12/10 10:28:46;;;;;;;47.47;27.67;;;;;;;;;;5071751;28;20180;-58
2020/12/10 10:31:11;;;;;;;45.30;28.90;;;;;;;;;;5071461;28;20167;-58
2020/12/10 10:33:36;;;;;;;49.63;30.10;;;;;;;;;;5071868;28;20602;-58
2020/12/10 10:36:02;;;;;;;52.65;29.98;;;;;;;;;;5066767;28;20266;-58
2020/12/10 10:38:27;;;;;;;48.43;29.03;;;;;;;;;;5071740;28;20171;-58
2020/12/10 10:40:52;;;;;;;47.43;29.70;;;;;;;;;;5071418;28;20181;-57
2020/12/10 10:43:18;;;;;;;49.03;29.60;;;;;;;;;;5071391;28;20210;-58
2020/12/10 10:45:43;;;;;;;51.80;30.87;;;;;;;;;;5070451;28;20258;-58
2020/12/10 10:48:08;;;;;;;47.30;29.35;;;;;;;;;;5071306;28;20231;-58
2020/12/10 10:50:33;;;;;;;52.13;30.33;;;;;;;;;;5071540;28;20261;-58
2020/12/10 10:52:58;;;;;;;46.90;28.67;;;;;;;;;;5071315;28;20518;-57
2020/12/10 10:55:24;;;;;;;47.30;28.30;;;;;;;;;;5071289;28;20197;-57
2020/12/10 10:57:49;;;;;;;47.07;26.87;;;;;;;;;;5066997;28;20282;-58
2020/12/10 11:00:14;;;;;;;44.92;27.10;;;;;;;;;;5070338;28;20206;-58
2020/12/10 11:02:39;;;;;;;48.72;27.48;;;;;;;;;;5070926;28;20237;-58
2020/12/10 11:05:04;;;;;;;47.67;28.58;;;;;;;;;;5071442;28;20222;-58
2020/12/10 11:07:29;;;;;;;43.20;28.27;;;;;;;;;;5070254;28;20675;-58
2020/12/10 11:09:54;;;;;;;46.73;28.63;;;;;;;;;;5071293;28;20171;-57
2020/12/10 11:12:20;;;;;;;46.75;26.63;;;;;;;;;;5070923;28;20656;-57
2020/12/10 11:14:46;;;;;;;53.25;28.98;;;;;;;;;;5071169;28;20186;-57
2020/12/10 11:17:11;;;;;;;42.20;26.90;;;;;;;;;;5066597;28;20232;-58
2020/12/10 11:19:36;;;;;;;46.97;30.00;;;;;;;;;;5069076;28;21004;-58
2020/12/10 11:22:01;;;;;;;42.47;27.27;;;;;;;;;;5070938;28;20218;-59
2020/12/10 11:24:26;;;;;;;50.80;27.80;;;;;;;;;;5070673;28;20899;-57
2020/12/10 11:26:52;;;;;;;50.50;30.37;;;;;;;;;;5070696;28;20175;-58
2020/12/10 11:29:18;;;;;;;46.70;28.83;;;;;;;;;;5068379;28;20255;-58
2020/12/10 11:31:43;;;;;;;48.20;28.60;;;;;;;;;;5068513;28;20540;-59
2020/12/10 11:34:08;;;;;;;51.90;27.90;;;;;;;;;;5070597;28;20173;-57
2020/12/10 11:36:33;;;;;;;50.80;27.55;;;;;;;;;;5068519;28;20178;-58
2020/12/10 11:38:58;;;;;;;49.28;26.85;;;;;;;;;;5064147;28;20160;-58
2020/12/10 11:41:23;;;;;;;54.22;31.13;;;;;;;;;;5070145;28;20179;-58
2020/12/10 11:43:48;;;;;;;46.63;29.27;;;;;;;;;;5069842;28;20206;-58
2020/12/10 11:46:15;;;;;;;51.40;27.80;;;;;;;;;;5068444;28;20210;-57
2020/12/10 11:48:40;;;;;;;42.70;29.70;;;;;;;;;;5067266;28;20214;-57
2020/12/10 11:51:05;;;;;;;46.63;28.63;;;;;;;;;;5069953;28;20621;-59
2020/12/10 11:53:33;;;;;;;46.50;28.90;;;;;;;;;;5070422;28;20233;-57
2020/12/10 11:55:59;;;;;;;49.83;29.67;;;;;;;;;;5069497;28;20564;-58
2020/12/10 11:58:24;;;;;;;47.13;27.47;;;;;;;;;;5066737;28;21191;-58
2020/12/10 12:00:49;;;;;;;48.55;28.58;;;;;;;;;;5069313;28;20172;-57
2020/12/10 12:03:14;;;;;;;40.95;27.88;;;;;;;;;;5069868;28;20321;-57
2020/12/10 12:05:39;;;;;;;42.17;28.67;;;;;;;;;;5069854;28;20210;-58
2020/12/10 12:08:04;;;;;;;45.55;28.00;;;;;;;;;;5067229;28;20622;-58
2020/12/10 12:10:30;;;;;;;44.33;27.53;;;;;;;;;;5070228;28;20171;-58
2020/12/10 12:12:55;;;;;;;48.67;30.40;;;;;;;;;;5069723;28;20185;-59
2020/12/10 12:15:20;;;;;;;46.38;28.25;;;;;;;;;;5069668;28;20586;-58
2020/12/10 12:17:45;;;;;;;45.53;26.70;;;;;;;;;;5066279;28;20211;-58
2020/12/10 12:20:10;;;;;;;47.67;27.60;;;;;;;;;;5065266;28;20175;-58
2020/12/10 12:22:37;;;;;;;47.77;27.00;;;;;;;;;;5069781;28;20203;-58
2020/12/10 12:25:02;;;;;;;43.93;28.03;;;;;;;;;;5069458;28;20234;-58
2020/12/10 12:27:27;;;;;;;47.13;27.83;;;;;;;;;;5067716;28;20633;-58
2020/12/10 12:29:52;;;;;;;45.13;27.95;;;;;;;;;;5068139;28;20175;-57
2020/12/10 12:32:18;;;;;;;45.37;28.17;;;;;;;;;;5069796;28;20175;-58
2020/12/10 12:34:43;;;;;;;44.67;28.60;;;;;;;;;;5068819;28;20447;-58
2020/12/10 12:37:09;;;;;;;44.47;26.98;;;;;;;;;;5069870;28;20178;-57
2020/12/10 12:39:34;;;;;;;50.23;29.40;;;;;;;;;;5061971;28;20226;-58
2020/12/10 12:42:02;;;;;;;49.33;28.10;;;;;;;;;;5069183;28;20190;-58
2020/12/10 12:44:27;;;;;;;49.77;28.07;;;;;;;;;;5069279;28;20245;-58
2020/12/10 12:46:53;;;;;;;49.95;28.92;;;;;;;;;;5068704;28;20630;-58
2020/12/10 12:49:19;;;;;;;48.20;28.07;;;;;;;;;;5067584;28;20179;-58
2020/12/10 12:51:49;;;;;;;53.63;29.63;;;;;;;;;;5066515;28;20270;-58
2020/12/10 12:54:14;;;;;;;49.33;29.10;;;;;;;;;;5069027;28;20651;-58
2020/12/10 12:56:39;;;;;;;51.08;28.45;;;;;;;;;;5068978;28;20670;-59
2020/12/10 12:59:04;;;;;;;43.08;26.25;;;;;;;;;;5069025;28;20278;-58
2020/12/10 13:01:35;;;;;;;45.78;27.00;;;;;;;;;;5068362;28;20182;-58
2020/12/10 13:04:00;;;;;;;47.40;29.80;;;;;;;;;;5068415;28;20176;-58
2020/12/10 13:06:25;;;;;;;45.42;28.00;;;;;;;;;;5068840;28;20648;-58
2020/12/10 13:08:53;;;;;;;49.90;30.27;;;;;;;;;;5069109;28;20174;-58
2020/12/10 13:11:19;;;;;;;43.70;27.97;;;;;;;;;;5062790;28;20633;-57
2020/12/10 13:13:44;;;;;;;59.50;28.00;;;;;;;;;;5068989;28;20663;-58
2020/12/10 13:16:09;;;;;;;42.45;25.35;;;;;;;;;;5068411;28;20748;-58
2020/12/10 13:18:34;;;;;;;51.17;26.77;;;;;;;;;;5069122;28;20178;-58
2020/12/10 13:21:01;;;;;;;41.65;26.45;;;;;;;;;;5066615;28;20164;-58
2020/12/10 13:23:26;;;;;;;46.80;27.30;;;;;;;;;;5068055;28;20194;-58
2020/12/10 13:25:51;;;;;;;48.50;27.20;;;;;;;;;;5068834;28;20637;-58
2020/12/10 13:28:17;;;;;;;48.63;28.60;;;;;;;;;;5068621;28;20170;-58
2020/12/10 13:30:43;;;;;;;49.83;27.63;;;;;;;;;;5068691;28;20179;-58
2020/12/10 13:33:08;;;;;;;49.30;27.30;;;;;;;;;;5068037;28;20254;-58
2020/12/10 13:35:33;;;;;;;52.50;28.48;;;;;;;;;;5066749;28;20606;-58
2020/12/10 13:37:59;;;;;;;44.97;27.02;;;;;;;;;;5066358;28;20187;-58
2020/12/10 13:40:24;;;;;;;48.10;27.73;;;;;;;;;;5068471;28;20171;-58
2020/12/10 13:42:49;;;;;;;48.60;28.17;;;;;;;;;;5061167;28;20543;-58
2020/12/10 13:45:14;;;;;;;46.30;26.30;;;;;;;;;;5068640;28;20887;-57
2020/12/10 13:47:39;;;;;;;48.30;28.58;;;;;;;;;;5068621;28;20171;-58
2020/12/10 13:50:07;;;;;;;53.03;29.40;;;;;;;;;;5068673;28;20250;-58
2020/12/10 13:52:32;;;;;;;44.47;26.90;;;;;;;;;;5067287;28;20253;-58
2020/12/10 13:54:57;;;;;;;46.38;27.65;;;;;;;;;;5072342;28;20705;-57
2020/12/10 13:57:28;;;;;;;45.17;27.87;;;;;;;;;;5070572;28;20246;-57
2020/12/10 13:59:53;;;;;;;42.23;26.50;;;;;;;;;;5070442;28;20183;-58
2020/12/10 14:02:19;;;;;;;52.90;28.70;;;;;;;;;;5072235;28;20597;-58
2020/12/10 14:04:44;;;;;;;46.77;27.67;;;;;;;;;;5066141;28;20206;-58
2020/12/10 14:07:09;;;;;;;57.83;30.38;;;;;;;;;;5072384;28;20178;-58
2020/12/10 14:09:34;;;;;;;45.10;28.03;;;;;;;;;;5072404;28;20538;-58